Time;durP1;ratioP1;P1;durP2;ratioP2;P2;SDS_P1;SDS_P2;PMS_P1;PMS_P2;Temp;Humidity;BMP_temperature;BMP_pressure;BME280_temperature;BME280_humidity;BME280_pressure;Samples;Min_cycle;Max_cycle;Signal;HPM_P1;HPM_P2
2021/09/06 00:01:15;;;;;;;16.80;8.73;;;;;;;9.84;100.00;99996.20;1647849;86;20884;-62
2021/09/06 00:03:45;;;;;;;18.85;8.80;;;;;;;9.81;100.00;99997.48;1681862;84;20876;-64
2021/09/06 00:06:15;;;;;;;14.23;8.40;;;;;;;9.77;100.00;99991.30;1681484;84;21085;-63
2021/09/06 00:08:44;;;;;;;13.50;8.63;;;;;;;9.76;100.00;99993.92;1681703;84;21454;-62
2021/09/06 00:11:15;;;;;;;15.23;9.15;;;;;;;9.75;100.00;99998.73;1681479;84;20903;-62
2021/09/06 00:13:45;;;;;;;15.85;8.53;;;;;;;9.76;100.00;99994.80;1648156;86;21390;-62
2021/09/06 00:16:15;;;;;;;14.98;8.48;;;;;;;9.74;100.00;99995.22;1681509;85;20908;-62
2021/09/06 00:18:45;;;;;;;15.60;8.98;;;;;;;9.69;100.00;100001.30;1681479;85;21427;-62
2021/09/06 00:21:15;;;;;;;14.20;8.53;;;;;;;9.63;100.00;99999.92;1681563;85;21430;-62
2021/09/06 00:23:45;;;;;;;16.95;8.45;;;;;;;9.58;100.00;100002.94;1647969;86;21443;-64
2021/09/06 00:26:15;;;;;;;14.20;8.53;;;;;;;9.54;100.00;99999.82;1647980;86;20880;-64
2021/09/06 00:28:45;;;;;;;15.53;9.15;;;;;;;9.50;100.00;100006.80;1681812;84;21463;-65
2021/09/06 00:31:15;;;;;;;14.40;9.05;;;;;;;9.44;100.00;100003.63;1681553;84;21917;-62
2021/09/06 00:33:45;;;;;;;18.95;10.78;;;;;;;9.39;100.00;99997.86;1681603;85;21464;-63
2021/09/06 00:36:14;;;;;;;16.73;10.30;;;;;;;9.36;100.00;99997.39;1681532;84;21455;-62
2021/09/06 00:38:44;;;;;;;17.42;10.60;;;;;;;9.36;100.00;100005.29;1681827;84;21447;-64
2021/09/06 00:41:15;;;;;;;18.60;10.98;;;;;;;9.41;100.00;100007.55;1681486;85;20995;-63
2021/09/06 00:43:44;;;;;;;17.48;10.93;;;;;;;9.45;100.00;100003.20;1681729;84;21075;-64
2021/09/06 00:46:16;;;;;;;20.12;11.95;;;;;;;9.46;100.00;100007.20;1681375;84;21435;-65
2021/09/06 00:48:45;;;;;;;22.70;13.68;;;;;;;9.48;100.00;100005.91;1681799;85;21519;-65
2021/09/06 00:51:13;;;;;;;21.60;13.62;;;;;;;9.46;100.00;100008.52;1681524;84;20907;-62
2021/09/06 00:53:43;;;;;;;19.17;11.12;;;;;;;9.45;100.00;100009.78;1681840;84;21440;-62
2021/09/06 00:56:14;;;;;;;16.52;9.38;;;;;;;9.41;100.00;100009.30;1681537;85;21442;-62
2021/09/06 00:58:44;;;;;;;15.78;9.75;;;;;;;9.38;100.00;100007.94;1681657;84;21411;-62
2021/09/06 01:01:13;;;;;;;15.75;9.45;;;;;;;9.34;100.00;100015.35;1647838;86;20947;-61
2021/09/06 01:03:41;;;;;;;16.97;9.38;;;;;;;9.29;100.00;100010.03;1648187;86;20976;-62
2021/09/06 01:06:11;;;;;;;14.60;9.38;;;;;;;9.25;100.00;100007.34;1665096;85;20940;-62
2021/09/06 01:08:47;;;;;;;16.67;8.65;;;;;;;9.20;100.00;100003.33;1675262;84;21062;-63
2021/09/06 01:11:23;;;;;;;18.12;9.75;;;;;;;9.13;100.00;100002.37;1651997;84;21460;-64
2021/09/06 01:14:11;;;;;;;17.60;9.23;;;;;;;9.07;100.00;100003.60;1627906;87;21553;-62
2021/09/06 01:16:40;;;;;;;13.93;8.95;;;;;;;8.98;100.00;100000.81;1627686;87;21592;-62
2021/09/06 01:19:09;;;;;;;12.60;8.63;;;;;;;8.91;100.00;100004.22;1599584;87;21061;-62
2021/09/06 01:21:38;;;;;;;16.75;9.08;;;;;;;8.88;100.00;100007.24;1694323;84;21081;-62
2021/09/06 01:24:18;;;;;;;15.80;9.13;;;;;;;8.87;100.00;99998.47;1660084;85;20932;-62
2021/09/06 01:26:49;;;;;;;17.15;10.25;;;;;;;8.86;100.00;100007.22;1672699;84;21438;-63
2021/09/06 01:29:19;;;;;;;16.10;9.98;;;;;;;8.81;100.00;100000.58;1694176;82;21018;-63
2021/09/06 01:31:48;;;;;;;17.27;9.28;;;;;;;8.79;100.00;100009.31;1694413;84;20868;-62
2021/09/06 01:34:17;;;;;;;17.40;9.53;;;;;;;8.77;100.00;100004.03;1672644;84;21116;-63
2021/09/06 01:36:46;;;;;;;16.50;9.53;;;;;;;8.73;100.00;100001.33;1672840;84;20935;-61
2021/09/06 01:39:15;;;;;;;14.45;9.15;;;;;;;8.70;100.00;100003.92;1674519;85;20976;-61
2021/09/06 01:41:45;;;;;;;16.50;10.53;;;;;;;8.69;100.00;99997.77;1694317;84;21549;-61
2021/09/06 01:44:15;;;;;;;21.65;10.45;;;;;;;8.69;100.00;100000.41;1694324;84;21494;-61
2021/09/06 01:46:44;;;;;;;18.20;9.65;;;;;;;8.67;100.00;99997.30;1694632;84;21060;-61
2021/09/06 01:49:14;;;;;;;18.80;10.13;;;;;;;8.66;100.00;99999.47;1694325;84;21537;-61
2021/09/06 01:51:46;;;;;;;17.98;10.00;;;;;;;8.64;100.00;99998.13;1694838;84;21434;-61
2021/09/06 01:54:15;;;;;;;15.23;8.65;;;;;;;8.62;100.00;99998.55;1694359;84;21050;-61
2021/09/06 01:56:44;;;;;;;17.20;8.53;;;;;;;8.61;100.00;99992.83;1694570;84;21532;-62
2021/09/06 01:59:15;;;;;;;13.50;9.15;;;;;;;8.60;100.00;99993.69;1694372;84;21549;-61
2021/09/06 02:01:44;;;;;;;20.20;10.25;;;;;;;8.61;100.00;99995.89;1672801;84;21525;-62
2021/09/06 02:04:13;;;;;;;15.08;8.73;;;;;;;8.59;100.00;100003.76;1694040;84;20943;-60
2021/09/06 02:06:44;;;;;;;14.75;9.20;;;;;;;8.57;100.00;100004.59;1684026;83;21506;-62
2021/09/06 02:09:13;;;;;;;15.13;9.38;;;;;;;8.53;100.00;99998.83;1681509;85;21171;-61
2021/09/06 02:11:44;;;;;;;15.72;9.15;;;;;;;8.49;100.00;100004.44;1648232;86;21597;-63
2021/09/06 02:14:14;;;;;;;13.40;8.05;;;;;;;8.43;100.00;100004.34;1681371;84;21597;-61
2021/09/06 02:16:44;;;;;;;16.62;9.43;;;;;;;8.39;100.00;100006.47;1681466;84;21078;-63
2021/09/06 02:19:15;;;;;;;16.32;9.68;;;;;;;8.34;100.00;100002.88;1680090;85;21030;-63
2021/09/06 02:21:46;;;;;;;16.50;9.25;;;;;;;8.28;100.00;100008.89;1681390;84;21423;-61
2021/09/06 02:24:17;;;;;;;16.82;9.33;;;;;;;8.25;100.00;100014.09;1647920;86;21096;-61
2021/09/06 02:26:48;;;;;;;15.58;9.35;;;;;;;8.21;100.00;100012.27;1681300;85;20983;-62
2021/09/06 02:29:19;;;;;;;20.15;8.53;;;;;;;8.18;100.00;100014.85;1681477;84;21486;-63
2021/09/06 02:31:53;;;;;;;15.28;8.80;;;;;;;8.18;100.00;100011.80;1645912;86;21736;-63
2021/09/06 02:34:24;;;;;;;15.03;8.78;;;;;;;8.20;100.00;100014.45;1678971;85;20927;-63
2021/09/06 02:36:55;;;;;;;16.23;10.05;;;;;;;8.21;100.00;100020.16;1676889;84;21415;-61
2021/09/06 02:39:27;;;;;;;19.00;9.48;;;;;;;8.20;100.00;100018.39;1678534;84;20959;-61
2021/09/06 02:41:58;;;;;;;15.88;9.68;;;;;;;8.18;100.00;100020.11;1672072;85;20961;-61
2021/09/06 02:44:28;;;;;;;;;;;;;;;8.16;100.00;100020.52;1676516;84;21487;-61
2021/09/06 02:47:02;;;;;;;18.85;10.05;;;;;;;8.13;100.00;100027.91;1662081;84;20079;-62
2021/09/06 02:49:35;;;;;;;16.40;10.00;;;;;;;8.10;100.00;100017.78;1646534;85;21119;-61
2021/09/06 02:52:06;;;;;;;18.20;9.98;;;;;;;8.04;100.00;100023.81;1681364;85;21482;-61
2021/09/06 02:54:35;;;;;;;16.52;9.23;;;;;;;7.98;100.00;100026.30;1681406;85;20891;-63
2021/09/06 02:57:03;;;;;;;16.52;8.98;;;;;;;7.94;100.00;100023.16;1681693;84;20955;-63
2021/09/06 02:59:32;;;;;;;13.43;8.68;;;;;;;7.92;100.00;100028.81;1681416;85;20947;-63
2021/09/06 03:02:00;;;;;;;15.60;8.90;;;;;;;7.88;100.00;100026.98;1681491;85;21086;-63
2021/09/06 03:04:28;;;;;;;17.30;9.03;;;;;;;7.84;100.00;100024.73;1616210;87;20952;-63
2021/09/06 03:06:57;;;;;;;14.70;8.98;;;;;;;7.81;100.00;100029.05;1647968;84;20951;-62
2021/09/06 03:09:24;;;;;;;20.27;9.80;;;;;;;7.82;100.00;100033.44;1616349;87;21043;-62
2021/09/06 03:11:53;;;;;;;16.55;9.63;;;;;;;7.79;100.00;100032.06;1648036;86;21538;-61
2021/09/06 03:14:21;;;;;;;21.40;10.43;;;;;;;7.75;100.00;100036.38;1647876;86;21731;-63
2021/09/06 03:16:51;;;;;;;23.80;10.32;;;;;;;7.72;100.00;100037.63;1606320;88;20971;-63
2021/09/06 03:19:19;;;;;;;18.15;10.55;;;;;;;7.71;100.00;100043.73;1622966;86;20944;-61
2021/09/06 03:21:50;;;;;;;17.35;10.20;;;;;;;7.69;100.00;100042.83;1660477;85;21090;-61
2021/09/06 03:24:19;;;;;;;19.75;11.00;;;;;;;7.68;100.00;100044.99;1674804;85;21012;-61
2021/09/06 03:26:48;;;;;;;19.02;10.70;;;;;;;7.69;100.00;100048.50;1674810;85;21806;-62
2021/09/06 03:29:16;;;;;;;18.90;10.43;;;;;;;7.69;100.00;100049.39;1674711;85;21435;-62
2021/09/06 03:31:46;;;;;;;19.37;9.80;;;;;;;7.70;100.00;100049.84;1674727;85;21416;-63
2021/09/06 03:34:15;;;;;;;16.60;9.13;;;;;;;7.71;100.00;100055.56;1672715;85;21354;-63
2021/09/06 03:36:44;;;;;;;21.15;11.25;;;;;;;7.76;100.00;100054.33;1676881;84;20928;-62
2021/09/06 03:39:14;;;;;;;18.48;9.43;;;;;;;7.78;100.00;100056.56;1681042;85;21927;-63
2021/09/06 03:41:46;;;;;;;23.62;10.15;;;;;;;7.80;100.00;100056.16;1681422;84;20990;-63
2021/09/06 03:44:15;;;;;;;23.32;10.55;;;;;;;7.83;100.00;100058.84;1647622;85;20964;-64
2021/09/06 03:46:46;;;;;;;22.27;10.25;;;;;;;7.86;100.00;100061.53;1679636;85;20915;-63
2021/09/06 03:49:14;;;;;;;26.97;10.18;;;;;;;7.87;100.00;100069.88;1679453;85;20972;-62
2021/09/06 03:51:43;;;;;;;19.27;9.68;;;;;;;7.88;100.00;100068.59;1662003;85;21752;-60
2021/09/06 03:54:12;;;;;;;21.37;9.75;;;;;;;7.89;100.00;100071.67;1674607;85;20900;-63
2021/09/06 03:56:41;;;;;;;15.90;9.00;;;;;;;7.92;100.00;100076.53;1672203;85;21471;-63
2021/09/06 03:59:10;;;;;;;18.10;8.85;;;;;;;7.97;100.00;100078.81;1672276;85;20872;-63
2021/09/06 04:01:38;;;;;;;15.60;8.88;;;;;;;8.00;100.00;100071.88;1672216;85;20868;-62
2021/09/06 04:04:07;;;;;;;34.05;10.03;;;;;;;8.05;100.00;100082.08;1672190;85;21102;-63
2021/09/06 04:06:34;;;;;;;28.05;10.08;;;;;;;8.09;100.00;100080.39;1680846;84;20950;-65
2021/09/06 04:09:05;;;;;;;26.02;10.95;;;;;;;8.10;100.00;100086.98;1670822;84;20899;-61
2021/09/06 04:11:33;;;;;;;22.73;11.03;;;;;;;8.11;100.00;100084.81;1674153;84;20920;-61
2021/09/06 04:14:01;;;;;;;21.60;10.93;;;;;;;8.12;100.00;100089.22;1670439;85;21511;-62
2021/09/06 04:16:31;;;;;;;21.57;9.83;;;;;;;8.13;100.00;100092.30;1661827;85;21422;-62
2021/09/06 04:19:00;;;;;;;18.57;9.48;;;;;;;8.16;100.00;100088.41;1671681;85;20976;-61
2021/09/06 04:21:29;;;;;;;23.80;11.75;;;;;;;8.23;100.00;100091.16;1671924;85;20960;-62
2021/09/06 04:23:58;;;;;;;24.18;11.95;;;;;;;8.28;100.00;100096.06;1671541;85;21007;-63
2021/09/06 04:26:26;;;;;;;31.73;12.75;;;;;;;8.32;100.00;100098.77;1671340;85;21974;-62
2021/09/06 04:28:55;;;;;;;20.48;12.28;;;;;;;8.36;100.00;100096.69;1672371;85;21420;-61
2021/09/06 04:31:24;;;;;;;22.17;13.08;;;;;;;8.42;100.00;100104.69;1672384;85;21467;-61
2021/09/06 04:33:52;;;;;;;24.18;13.20;;;;;;;8.48;100.00;100102.59;1672670;85;21411;-61
2021/09/06 04:36:23;;;;;;;24.20;13.00;;;;;;;8.55;100.00;100105.81;1672398;85;21476;-62
2021/09/06 04:38:53;;;;;;;27.45;13.55;;;;;;;8.60;100.00;100109.84;1672235;85;21483;-61
2021/09/06 04:41:21;;;;;;;22.70;11.68;;;;;;;8.62;100.00;100114.27;1672545;85;21767;-61
2021/09/06 04:43:49;;;;;;;23.95;12.43;;;;;;;8.65;100.00;100118.69;1672576;85;20944;-62
2021/09/06 04:46:18;;;;;;;25.92;11.65;;;;;;;8.69;100.00;100124.03;1672413;85;20944;-62
2021/09/06 04:48:48;;;;;;;19.12;11.20;;;;;;;8.72;100.00;100110.92;1672643;85;20896;-62
2021/09/06 04:51:21;;;;;;;17.82;10.03;;;;;;;8.80;100.00;100114.56;1672356;85;21412;-62
2021/09/06 04:53:49;;;;;;;13.95;9.45;;;;;;;8.86;100.00;100112.89;1672675;85;21117;-62
2021/09/06 04:56:20;;;;;;;13.98;9.23;;;;;;;8.91;100.00;100120.00;1672348;85;20900;-62
2021/09/06 04:58:48;;;;;;;13.53;8.28;;;;;;;8.95;100.00;100115.67;1672604;85;20943;-63
2021/09/06 05:01:16;;;;;;;12.25;7.42;;;;;;;9.00;100.00;100121.92;1672478;85;20955;-62
2021/09/06 05:03:45;;;;;;;11.60;8.13;;;;;;;9.06;100.00;100122.02;1641850;85;21430;-62
2021/09/06 05:06:17;;;;;;;13.03;7.20;;;;;;;9.15;100.00;100123.04;1672252;85;21109;-63
2021/09/06 05:08:47;;;;;;;11.53;7.28;;;;;;;9.23;100.00;100114.38;1672366;85;21479;-63
2021/09/06 05:11:18;;;;;;;9.33;7.12;;;;;;;9.31;100.00;100120.20;1672177;85;21432;-62
2021/09/06 05:13:47;;;;;;;12.47;8.15;;;;;;;9.39;100.00;100121.19;1672341;85;21491;-63
2021/09/06 05:16:16;;;;;;;12.18;7.75;;;;;;;9.48;100.00;100120.90;1672190;85;21446;-63
2021/09/06 05:18:45;;;;;;;10.40;7.20;;;;;;;9.57;100.00;100117.06;1641706;85;21030;-63
2021/09/06 05:21:13;;;;;;;14.00;8.05;;;;;;;9.69;100.00;100122.06;1672168;85;20999;-63
2021/09/06 05:23:46;;;;;;;11.88;7.78;;;;;;;9.81;100.00;100121.77;1672065;85;20924;-63
2021/09/06 05:26:17;;;;;;;11.80;7.40;;;;;;;9.91;100.00;100124.96;1672164;85;20876;-63
2021/09/06 05:28:47;;;;;;;10.80;7.17;;;;;;;9.99;100.00;100129.48;1672432;85;21466;-63
2021/09/06 05:31:15;;;;;;;10.50;7.08;;;;;;;10.09;100.00;100131.36;1672153;85;21920;-63
2021/09/06 05:33:45;;;;;;;13.05;7.85;;;;;;;10.21;100.00;100128.45;1672296;85;20951;-63
2021/09/06 05:36:15;;;;;;;15.15;7.87;;;;;;;10.32;100.00;100126.37;1672205;85;20919;-63
2021/09/06 05:38:50;;;;;;;15.25;8.23;;;;;;;10.45;100.00;100123.45;1672380;85;20943;-63
2021/09/06 05:41:20;;;;;;;14.07;8.08;;;;;;;10.57;100.00;100135.87;1669273;85;21004;-63
2021/09/06 05:43:49;;;;;;;11.75;7.97;;;;;;;10.68;100.00;100139.50;1672366;85;21367;-62
2021/09/06 05:46:18;;;;;;;11.93;8.53;;;;;;;10.79;100.00;100138.27;1672156;85;20956;-61
2021/09/06 05:48:46;;;;;;;11.60;7.33;;;;;;;10.90;100.00;100136.64;1672372;85;21490;-63
2021/09/06 05:51:15;;;;;;;14.85;8.28;;;;;;;11.01;100.00;100134.97;1672158;85;21498;-61
2021/09/06 05:53:44;;;;;;;12.43;8.35;;;;;;;11.15;100.00;100138.59;1671100;85;20943;-61
2021/09/06 05:56:12;;;;;;;16.65;8.08;;;;;;;11.27;100.00;100129.44;1672185;85;21002;-61
2021/09/06 05:58:41;;;;;;;17.52;9.33;;;;;;;11.41;100.00;100132.19;1672330;85;20943;-62
2021/09/06 06:01:10;;;;;;;22.45;9.25;;;;;;;11.49;100.00;100129.16;1672255;85;21491;-61
2021/09/06 06:03:38;;;;;;;15.90;8.00;;;;;;;11.57;100.00;100134.05;1672327;85;21487;-60
2021/09/06 06:06:08;;;;;;;21.55;9.75;;;;;;;11.68;100.00;100132.78;1672074;85;20964;-61
2021/09/06 06:08:36;;;;;;;22.30;8.73;;;;;;;11.79;100.00;100123.17;1672087;85;21769;-61
2021/09/06 06:11:07;;;;;;;17.12;8.63;;;;;;;11.91;100.00;100124.58;1641634;85;20915;-61
2021/09/06 06:13:34;;;;;;;16.07;7.45;;;;;;;12.03;100.00;100123.73;1672140;85;20876;-61
2021/09/06 06:16:05;;;;;;;15.05;7.95;;;;;;;12.12;100.00;100122.44;1672310;85;21462;-61
2021/09/06 06:18:36;;;;;;;14.53;7.73;;;;;;;12.24;100.00;100129.53;1672372;85;20959;-61
2021/09/06 06:21:05;;;;;;;14.07;7.53;;;;;;;12.33;100.00;100130.91;1672097;85;21454;-61
2021/09/06 06:23:43;;;;;;;14.90;8.25;;;;;;;12.45;100.00;100131.38;1670291;85;20936;-62
2021/09/06 06:26:16;;;;;;;17.25;7.75;;;;;;;12.55;100.00;100128.74;1671407;85;21506;-61
2021/09/06 06:28:45;;;;;;;14.57;7.60;;;;;;;12.65;100.00;100129.63;1672379;85;20880;-62
2021/09/06 06:31:15;;;;;;;13.10;7.05;;;;;;;12.78;100.00;100132.77;1672149;85;21420;-62
2021/09/06 06:33:44;;;;;;;15.28;7.08;;;;;;;12.89;100.00;100128.35;1672088;85;21104;-62
2021/09/06 06:36:14;;;;;;;13.43;6.65;;;;;;;13.02;100.00;100134.53;1672357;85;20936;-62
2021/09/06 06:38:42;;;;;;;11.70;6.78;;;;;;;13.12;100.00;100132.31;1672083;85;20955;-62
2021/09/06 06:41:11;;;;;;;15.23;7.12;;;;;;;13.25;100.00;100133.69;1672336;85;21029;-62
2021/09/06 06:43:41;;;;;;;17.87;7.05;;;;;;;13.37;100.00;100133.67;1670755;85;20873;-61
2021/09/06 06:46:10;;;;;;;19.92;7.22;;;;;;;13.51;100.00;100137.17;1672117;85;21915;-61
2021/09/06 06:48:39;;;;;;;13.08;6.75;;;;;;;13.63;100.00;100138.47;1672025;85;20892;-61
2021/09/06 06:51:07;;;;;;;14.50;6.67;;;;;;;13.75;100.00;100138.91;1672309;85;20920;-61
2021/09/06 06:53:38;;;;;;;8.53;6.08;;;;;;;13.85;100.00;100134.89;1671204;85;21467;-61
2021/09/06 06:56:06;;;;;;;11.15;6.33;;;;;;;13.97;100.00;100137.05;1672388;85;21364;-61
2021/09/06 06:58:39;;;;;;;11.43;6.45;;;;;;;14.09;100.00;100135.23;1672069;85;21098;-61
2021/09/06 07:01:09;;;;;;;12.75;5.90;;;;;;;14.19;100.00;100144.05;1671926;85;20892;-62
2021/09/06 07:03:42;;;;;;;17.05;5.25;;;;;;;14.29;100.00;100142.23;1641528;85;20864;-63
2021/09/06 07:06:10;;;;;;;10.15;6.08;;;;;;;14.36;100.00;100138.66;1672250;85;20908;-62
2021/09/06 07:08:40;;;;;;;12.90;5.90;;;;;;;14.47;100.00;100143.04;1670185;85;20972;-60
2021/09/06 07:11:09;;;;;;;8.85;4.47;;;;;;;14.61;100.00;100146.94;1670211;85;21400;-60
2021/09/06 07:13:38;;;;;;;8.08;4.72;;;;;;;14.72;100.00;100144.23;1669858;85;21443;-60
2021/09/06 07:16:08;;;;;;;7.85;4.45;;;;;;;14.81;100.00;100146.83;1670150;85;20888;-62
2021/09/06 07:18:38;;;;;;;5.67;3.92;;;;;;;14.93;100.00;100144.52;1669917;85;20877;-62
2021/09/06 07:21:06;;;;;;;7.28;4.47;;;;;;;15.06;100.00;100140.86;1670185;86;20912;-62
2021/09/06 07:23:34;;;;;;;6.33;4.30;;;;;;;15.21;100.00;100147.41;1669890;86;21084;-62
2021/09/06 07:26:02;;;;;;;8.40;4.37;;;;;;;15.35;100.00;100143.28;1670216;85;20946;-61
2021/09/06 07:28:30;;;;;;;6.35;4.42;;;;;;;15.45;100.00;100142.30;1670065;85;21452;-62
2021/09/06 07:31:00;;;;;;;7.22;4.20;;;;;;;15.57;100.00;100145.28;1670298;85;20932;-61
2021/09/06 07:33:28;;;;;;;8.20;4.53;;;;;;;15.66;100.00;100146.58;1670125;85;20956;-62
2021/09/06 07:35:55;;;;;;;10.88;4.40;;;;;;;15.75;100.00;100146.47;1670338;85;21080;-60
2021/09/06 07:38:24;;;;;;;6.85;4.53;;;;;;;15.87;100.00;100141.45;1670076;85;20908;-62
2021/09/06 07:40:53;;;;;;;7.12;3.75;;;;;;;15.98;100.00;100143.53;1670307;85;20964;-60
2021/09/06 07:43:25;;;;;;;6.15;3.50;;;;;;;16.04;100.00;100135.02;1670049;85;20976;-60
2021/09/06 07:45:56;;;;;;;4.83;3.22;;;;;;;16.12;100.00;100141.61;1670418;85;20944;-60
2021/09/06 07:48:23;;;;;;;5.97;3.60;;;;;;;16.22;100.00;100138.38;1670041;85;21075;-61
2021/09/06 07:50:53;;;;;;;6.70;3.98;;;;;;;16.30;100.00;100138.70;1669942;85;21416;-60
2021/09/06 07:53:22;;;;;;;6.85;3.45;;;;;;;16.48;100.00;100140.67;1670056;85;20932;-60
2021/09/06 07:55:50;;;;;;;6.92;3.67;;;;;;;16.48;100.00;100140.67;1670272;85;20999;-61
2021/09/06 07:58:20;;;;;;;6.42;4.00;;;;;;;16.58;98.86;100142.34;1669767;85;20988;-60
2021/09/06 08:00:50;;;;;;;6.30;3.45;;;;;;;16.84;97.59;100136.19;1670325;85;23681;-60
2021/09/06 08:03:19;;;;;;;9.20;3.60;;;;;;;16.84;97.59;100136.19;1669947;86;20857;-61
2021/09/06 08:05:47;;;;;;;7.80;3.58;;;;;;;17.00;96.98;100138.15;1651145;86;21000;-62
2021/09/06 08:08:15;;;;;;;11.43;3.62;;;;;;;17.14;95.79;100128.62;1669931;86;20916;-60
2021/09/06 08:10:45;;;;;;;6.60;3.70;;;;;;;17.29;95.35;100131.89;1670299;85;21381;-60
2021/09/06 08:13:14;;;;;;;10.50;3.52;;;;;;;17.43;93.64;100128.97;1669869;85;21101;-60
2021/09/06 08:15:42;;;;;;;7.90;3.00;;;;;;;17.58;93.48;100129.17;1670175;86;20972;-60
2021/09/06 08:18:10;;;;;;;5.33;2.87;;;;;;;17.75;91.79;100126.20;1670034;85;20869;-60
2021/09/06 08:20:40;;;;;;;5.42;2.67;;;;;;;17.91;88.48;100128.99;1669560;85;20959;-61
2021/09/06 08:23:09;;;;;;;5.85;2.58;;;;;;;18.04;84.50;100133.66;1670235;85;20912;-61
2021/09/06 08:25:36;;;;;;;4.45;2.00;;;;;;;18.18;82.78;100124.44;1650946;86;21753;-61
2021/09/06 08:28:06;;;;;;;8.45;3.60;;;;;;;18.33;80.63;100127.23;1651072;86;21434;-61
2021/09/06 08:30:34;;;;;;;8.58;2.80;;;;;;;18.48;79.09;100130.04;1669994;85;20968;-63
2021/09/06 08:33:03;;;;;;;5.50;2.72;;;;;;;18.62;78.16;100119.95;1650986;86;20948;-64
2021/09/06 08:35:31;;;;;;;6.12;2.98;;;;;;;18.75;75.34;100124.55;1669996;86;20952;-63
2021/09/06 08:37:59;;;;;;;4.97;2.85;;;;;;;18.87;72.51;100122.91;1670054;85;21476;-62
2021/09/06 08:40:27;;;;;;;8.93;2.60;;;;;;;19.01;72.81;100122.14;1669940;85;20948;-62
2021/09/06 08:43:03;;;;;;;10.30;4.42;;;;;;;19.11;69.44;100116.09;1670205;85;21475;-63
2021/09/06 08:45:33;;;;;;;10.95;3.70;;;;;;;19.21;67.74;100118.95;1670007;85;20912;-63
2021/09/06 08:48:00;;;;;;;6.58;2.77;;;;;;;19.31;67.54;100119.13;1651206;86;20962;-63
2021/09/06 08:50:28;;;;;;;5.40;2.77;;;;;;;19.41;66.01;100103.28;1670050;85;21078;-62
2021/09/06 08:53:01;;;;;;;8.55;2.60;;;;;;;19.53;65.32;100106.12;1650464;86;20924;-62
2021/09/06 08:55:28;;;;;;;9.75;2.30;;;;;;;19.63;64.00;100106.74;1673385;85;20948;-60
2021/09/06 08:57:56;;;;;;;10.60;5.75;;;;;;;19.71;62.28;100106.95;1670014;85;21007;-65
2021/09/06 09:00:31;;;;;;;10.28;5.10;;;;;;;19.72;61.45;100108.70;1669928;85;21195;-62
2021/09/06 09:03:11;;;;;;;5.22;2.60;;;;;;;19.70;60.13;100113.22;1667243;85;21483;-65
2021/09/06 09:05:59;;;;;;;16.45;9.00;;;;;;;19.64;57.58;100107.16;1669008;85;21468;-61
2021/09/06 09:08:29;;;;;;;7.78;3.27;;;;;;;19.55;56.26;100114.11;1626795;85;21583;-64
2021/09/06 09:11:05;;;;;;;9.25;3.87;;;;;;;19.49;55.10;100115.12;1625101;88;20962;-63
2021/09/06 09:13:46;;;;;;;6.83;2.50;;;;;;;19.41;54.22;100112.65;1593682;88;21507;-63
2021/09/06 09:16:25;;;;;;;6.60;2.70;;;;;;;19.30;53.49;100109.81;1675049;84;21093;-65
2021/09/06 09:18:56;;;;;;;5.50;2.75;;;;;;;19.18;53.09;100108.34;1625577;84;20954;-63
2021/09/06 09:21:29;;;;;;;5.47;1.45;;;;;;;19.07;52.60;100107.27;1639112;85;20945;-61
2021/09/06 09:24:01;;;;;;;3.08;1.52;;;;;;;18.95;51.58;100106.71;1675388;84;21002;-63
2021/09/06 09:26:30;;;;;;;4.23;1.70;;;;;;;18.84;51.34;100110.95;1677770;85;21520;-60
2021/09/06 09:29:00;;;;;;;4.22;1.65;;;;;;;18.75;51.94;100106.71;1678960;84;21106;-61
2021/09/06 09:31:49;;;;;;;4.35;1.82;;;;;;;18.66;52.41;100102.92;1678460;84;20921;-61
2021/09/06 09:34:38;;;;;;;4.35;1.67;;;;;;;18.58;52.86;100104.87;1676945;84;20906;-61
2021/09/06 09:37:08;;;;;;;3.42;2.08;;;;;;;18.55;53.53;100108.95;1677689;84;20946;-61
2021/09/06 09:39:35;;;;;;;4.42;1.90;;;;;;;18.58;53.88;100108.00;1678291;85;20910;-60
2021/09/06 09:42:12;;;;;;;7.53;1.92;;;;;;;18.66;53.42;100102.92;1678446;84;21071;-63
2021/09/06 09:44:57;;;;;;;4.25;1.95;;;;;;;18.76;52.79;100105.80;1678160;84;21456;-62
2021/09/06 09:47:53;;;;;;;3.45;1.80;;;;;;;18.94;52.58;100093.80;1676949;84;20918;-62
2021/09/06 09:50:24;;;;;;;3.50;1.47;;;;;;;19.21;52.88;100096.67;1677383;84;20921;-61
2021/09/06 09:52:55;;;;;;;5.85;1.80;;;;;;;19.44;52.01;100096.52;1677444;84;27277;-61
2021/09/06 09:55:26;;;;;;;3.65;1.77;;;;;;;19.66;50.82;100097.29;1677307;84;21075;-61
2021/09/06 09:57:55;;;;;;;2.77;1.50;;;;;;;19.89;50.60;100096.66;1678245;84;20899;-61
2021/09/06 10:00:23;;;;;;;3.85;1.80;;;;;;;20.10;49.48;100100.92;1678239;84;21425;-61
2021/09/06 10:02:55;;;;;;;3.75;1.50;;;;;;;20.31;49.59;100098.52;1678198;84;20967;-61
2021/09/06 10:05:28;;;;;;;3.02;1.40;;;;;;;20.53;48.83;100099.66;1678387;84;21473;-62
2021/09/06 10:07:59;;;;;;;;;;;;;;;20.73;48.28;100086.95;1682431;83;20859;-62
2021/09/06 10:10:29;;;;;;;5.25;1.20;;;;;;;20.92;47.54;100088.59;1693665;84;20374;-62
2021/09/06 10:13:06;;;;;;;3.25;1.52;;;;;;;21.15;47.55;100094.52;1670808;84;21396;-62
2021/09/06 10:15:43;;;;;;;5.47;1.47;;;;;;;21.34;46.27;100090.33;1692368;84;21415;-61
2021/09/06 10:18:20;;;;;;;3.12;1.37;;;;;;;21.48;45.75;100085.81;1692054;84;21414;-62
2021/09/06 10:20:54;;;;;;;3.35;1.70;;;;;;;21.52;44.97;100088.33;1692091;84;22003;-61
2021/09/06 10:23:25;;;;;;;3.02;1.50;;;;;;;21.55;44.64;100086.88;1692003;84;20876;-61
2021/09/06 10:26:00;;;;;;;5.75;1.98;;;;;;;21.59;44.25;100088.52;1692339;84;21435;-61
2021/09/06 10:28:32;;;;;;;2.83;1.52;;;;;;;21.68;45.06;100085.50;1688443;84;20955;-62
2021/09/06 10:31:01;;;;;;;3.02;1.40;;;;;;;21.82;44.27;100089.05;1692418;84;20915;-62
2021/09/06 10:33:36;;;;;;;2.72;1.42;;;;;;;21.92;43.44;100085.08;1670441;84;21789;-62
2021/09/06 10:36:13;;;;;;;3.30;1.30;;;;;;;22.03;42.95;100078.42;1692076;84;21018;-62
2021/09/06 10:38:47;;;;;;;2.25;1.30;;;;;;;22.12;41.96;100076.30;1671425;84;20915;-61
2021/09/06 10:41:21;;;;;;;2.62;1.60;;;;;;;22.23;41.35;100073.19;1669912;84;21019;-62
2021/09/06 10:44:00;;;;;;;3.15;1.45;;;;;;;22.29;40.81;100067.61;1690885;84;20907;-61
2021/09/06 10:46:29;;;;;;;4.12;1.72;;;;;;;22.29;40.05;100067.61;1691077;84;21297;-62
2021/09/06 10:49:04;;;;;;;2.22;1.40;;;;;;;22.23;39.81;100069.16;1692233;84;20911;-61
2021/09/06 10:51:35;;;;;;;4.15;1.60;;;;;;;22.15;39.19;100073.95;1692052;84;20899;-61
2021/09/06 10:54:07;;;;;;;2.67;1.50;;;;;;;22.03;38.72;100079.34;1692230;84;20915;-61
2021/09/06 10:56:35;;;;;;;5.20;2.80;;;;;;;21.87;38.50;100081.70;1692566;84;20958;-61
2021/09/06 10:59:02;;;;;;;5.28;3.10;;;;;;;21.67;39.17;100086.43;1692151;84;21929;-61
2021/09/06 11:01:36;;;;;;;6.95;3.33;;;;;;;21.49;39.69;100080.39;1692343;84;21442;-61
2021/09/06 11:04:14;;;;;;;6.30;2.65;;;;;;;21.30;40.45;100084.66;1692417;84;20980;-61
2021/09/06 11:06:42;;;;;;;7.78;2.33;;;;;;;21.09;40.68;100088.90;1692350;84;21491;-61
2021/09/06 11:09:11;;;;;;;6.75;2.45;;;;;;;20.92;41.17;100081.42;1671020;83;21009;-60
2021/09/06 11:11:41;;;;;;;11.97;4.75;;;;;;;20.77;41.75;100089.06;1652126;85;20943;-60
2021/09/06 11:14:09;;;;;;;17.57;7.47;;;;;;;20.62;42.01;100087.77;1652041;85;21089;-61
2021/09/06 11:16:42;;;;;;;19.27;7.33;;;;;;;20.47;42.51;100085.58;1652074;85;20863;-60
2021/09/06 11:19:12;;;;;;;19.65;7.50;;;;;;;20.35;43.11;100081.45;1652034;85;21431;-61
2021/09/06 11:21:42;;;;;;;18.85;5.87;;;;;;;20.34;44.60;100085.05;1652113;85;20959;-62
2021/09/06 11:24:13;;;;;;;18.82;3.47;;;;;;;20.34;44.58;100079.70;1652135;85;22699;-62
2021/09/06 11:26:42;;;;;;;7.80;2.70;;;;;;;20.32;44.46;100080.17;1652018;85;20932;-62
2021/09/06 11:29:12;;;;;;;4.37;2.10;;;;;;;20.28;44.08;100075.83;1652124;87;21522;-62
2021/09/06 11:31:41;;;;;;;6.42;2.05;;;;;;;20.25;43.79;100071.91;1652081;85;21487;-62